Time;durP1;ratioP1;P1;durP2;ratioP2;P2;SDS_P1;SDS_P2;PMS_P1;PMS_P2;Temp;Humidity;BMP_temperature;BMP_pressure;BME280_temperature;BME280_humidity;BME280_pressure;Samples;Min_cycle;Max_cycle;Signal;HPM_P1;HPM_P2
2022/01/22 00:00:15;;;;;;;19.83;4.17;;;5.80;99.90;;;;;;5073498;28;20024;-79
2022/01/22 00:02:41;;;;;;;19.07;4.23;;;5.90;99.90;;;;;;5071148;28;20469;-80
2022/01/22 00:05:09;;;;;;;11.00;4.30;;;5.90;99.90;;;;;;5072989;28;20090;-79
2022/01/22 00:07:35;;;;;;;11.70;3.30;;;5.90;99.90;;;;;;5089511;28;20027;-79
2022/01/22 00:10:06;;;;;;;11.27;3.30;;;6.00;99.90;;;;;;5072410;28;20033;-80
2022/01/22 00:15:02;;;;;;;16.80;3.60;;;5.90;99.90;;;;;;5073493;28;20036;-79
2022/01/22 00:17:28;;;;;;;13.20;3.90;;;5.90;99.90;;;;;;5072336;28;20082;-80
2022/01/22 00:19:54;;;;;;;9.17;2.90;;;5.90;99.90;;;;;;5055735;28;20033;-80
2022/01/22 00:22:24;;;;;;;15.63;3.13;;;5.90;99.90;;;;;;5073692;28;20431;-80
2022/01/22 00:24:54;;;;;;;17.23;3.40;;;5.90;99.90;;;;;;5073445;28;20020;-79
2022/01/22 00:27:20;;;;;;;17.47;3.23;;;5.90;99.90;;;;;;5056394;28;20028;-80
2022/01/22 00:29:46;;;;;;;12.97;2.70;;;6.10;99.90;;;;;;5072436;28;20052;-80
2022/01/22 00:32:12;;;;;;;12.80;3.53;;;5.90;99.90;;;;;;5073248;28;20075;-80
2022/01/22 00:34:37;;;;;;;13.63;2.73;;;5.90;99.90;;;;;;5072112;28;20048;-79
2022/01/22 00:37:03;;;;;;;9.20;2.97;;;5.90;99.90;;;;;;5039048;28;20050;-80
2022/01/22 00:39:30;;;;;;;9.27;2.90;;;5.80;99.90;;;;;;5068841;28;20036;-80
2022/01/22 00:41:55;;;;;;;9.53;2.30;;;5.90;99.90;;;;;;5070316;28;20099;-79
2022/01/22 00:44:21;;;;;;;11.40;2.50;;;5.80;99.90;;;;;;5072920;28;20028;-79
2022/01/22 00:46:47;;;;;;;8.53;2.90;;;5.90;99.90;;;;;;5071093;28;20032;-79
2022/01/22 00:49:13;;;;;;;11.57;3.07;;;5.90;99.90;;;;;;5074206;28;20358;-80
2022/01/22 00:51:38;;;;;;;13.10;3.17;;;5.90;99.90;;;;;;5055344;28;20389;-80
2022/01/22 00:54:04;;;;;;;14.60;2.97;;;5.90;99.90;;;;;;5070163;28;20033;-80
2022/01/22 00:56:30;;;;;;;11.10;3.30;;;5.90;99.90;;;;;;5036562;28;20033;-80
2022/01/22 00:58:55;;;;;;;14.97;3.93;;;5.90;99.90;;;;;;5070467;28;20025;-80
2022/01/22 01:01:21;;;;;;;16.30;3.13;;;5.90;99.90;;;;;;5053280;28;20067;-80
2022/01/22 01:03:46;;;;;;;10.03;3.10;;;5.90;99.90;;;;;;5071226;28;20070;-80
2022/01/22 01:06:14;;;;;;;8.43;2.70;;;5.90;99.90;;;;;;5071710;28;20534;-78
2022/01/22 01:08:40;;;;;;;21.13;3.97;;;5.90;99.90;;;;;;5071222;28;20028;-80
2022/01/22 01:11:07;;;;;;;11.03;4.17;;;5.90;99.90;;;;;;5055169;28;20032;-80
2022/01/22 01:13:39;;;;;;;14.63;3.63;;;5.90;99.90;;;;;;5072769;28;20469;-80
2022/01/22 01:35:16;;;;;;;17.00;5.60;;;5.90;99.90;;;;;;5075796;28;20082;-80
2022/01/22 01:37:41;;;;;;;14.87;4.70;;;5.90;99.90;;;;;;5075559;28;20389;-80
2022/01/22 01:40:09;;;;;;;14.07;4.73;;;5.90;99.90;;;;;;5075498;28;20115;-81
2022/01/22 01:42:51;;;;;;;15.57;4.60;;;5.90;99.90;;;;;;5076440;28;20097;-79
2022/01/22 01:45:17;;;;;;;13.30;5.17;;;5.90;99.90;;;;;;5075253;28;20082;-79
2022/01/22 01:47:46;;;;;;;12.20;4.50;;;5.90;99.90;;;;;;5075398;28;20033;-80
2022/01/22 01:50:12;;;;;;;20.20;4.90;;;5.90;99.90;;;;;;5076741;28;20074;-80
2022/01/22 01:55:12;;;;;;;18.40;5.77;;;5.80;99.90;;;;;;5076419;28;20578;-80
2022/01/22 01:57:40;;;;;;;23.95;6.20;;;5.90;99.90;;;;;;5074590;28;20067;-79
2022/01/22 02:00:14;;;;;;;13.67;5.77;;;5.80;99.90;;;;;;5076561;28;20025;-79
2022/01/22 02:02:41;;;;;;;;;;;5.90;99.90;;;;;;5075401;28;20066;-80
2022/01/22 02:05:09;;;;;;;14.13;4.80;;;5.90;99.90;;;;;;5072740;28;20364;-78
2022/01/22 02:07:38;;;;;;;21.37;6.27;;;5.90;99.90;;;;;;5053251;28;20428;-80
2022/01/22 02:10:06;;;;;;;18.20;6.50;;;5.90;99.90;;;;;;5072621;28;20029;-79
2022/01/22 02:25:57;;;;;;;20.30;7.30;;;6.00;99.90;;;;;;5076046;28;20039;-79
2022/01/22 02:28:22;;;;;;;20.03;6.43;;;5.90;99.90;;;;;;5057919;28;20031;-79
2022/01/22 02:30:53;;;;;;;21.20;6.87;;;5.90;99.90;;;;;;5074454;28;20032;-79
2022/01/22 02:33:32;;;;;;;18.17;6.67;;;5.90;99.90;;;;;;5074020;28;20146;-80
2022/01/22 02:36:13;;;;;;;13.77;6.07;;;6.00;99.90;;;;;;5059523;28;20039;-79
2022/01/22 02:38:55;;;;;;;19.60;7.83;;;6.00;99.90;;;;;;5059999;28;20540;-80
2022/01/22 02:41:24;;;;;;;17.57;6.50;;;6.00;99.90;;;;;;5075303;28;20151;-80
2022/01/22 02:43:52;;;;;;;20.87;7.30;;;6.00;99.90;;;;;;5074479;28;20469;-80
2022/01/22 02:46:20;;;;;;;20.37;7.23;;;6.00;99.90;;;;;;5073893;28;20027;-79
2022/01/22 02:48:46;;;;;;;18.97;7.20;;;6.00;99.90;;;;;;5074133;28;20577;-81
2022/01/22 02:51:12;;;;;;;19.47;7.20;;;6.00;99.90;;;;;;5071707;28;20032;-80
2022/01/22 02:53:37;;;;;;;14.83;6.87;;;5.90;99.90;;;;;;5054978;28;20559;-81
2022/01/22 02:56:03;;;;;;;16.97;7.33;;;5.90;99.90;;;;;;5055051;28;20040;-80
2022/01/22 02:58:29;;;;;;;18.50;8.80;;;5.90;99.90;;;;;;5070676;28;20428;-80
2022/01/22 03:00:55;;;;;;;14.10;6.63;;;5.90;99.90;;;;;;5037158;28;20025;-80
2022/01/22 03:03:21;;;;;;;24.17;8.97;;;5.90;99.90;;;;;;5053704;28;20025;-80
2022/01/22 03:05:46;;;;;;;24.27;8.10;;;5.90;99.90;;;;;;5037275;28;20083;-80
2022/01/22 03:08:14;;;;;;;19.57;8.83;;;5.90;99.90;;;;;;5031858;28;20115;-79
2022/01/22 03:10:43;;;;;;;21.73;8.53;;;5.90;99.90;;;;;;5087842;28;20119;-79
2022/01/22 03:13:37;;;;;;;21.17;7.70;;;6.00;99.90;;;;;;5073806;28;20039;-80
2022/01/22 03:16:06;;;;;;;23.00;8.10;;;6.00;99.90;;;;;;5073732;28;20393;-79
2022/01/22 03:21:08;;;;;;;22.07;9.03;;;6.10;99.90;;;;;;5071950;28;20448;-79
2022/01/22 03:29:11;;;;;;;22.40;8.27;;;6.10;99.90;;;;;;5073273;28;20048;-80
2022/01/22 03:31:37;;;;;;;20.63;7.60;;;6.10;99.90;;;;;;5057566;28;20036;-80
2022/01/22 03:34:04;;;;;;;19.83;7.77;;;6.10;99.90;;;;;;5037729;28;20031;-79
2022/01/22 03:36:32;;;;;;;24.13;7.67;;;6.10;99.90;;;;;;5071168;28;20039;-80
2022/01/22 03:39:00;;;;;;;15.67;7.53;;;6.10;99.90;;;;;;5073848;28;20066;-80
2022/01/22 03:41:25;;;;;;;15.67;7.03;;;6.10;99.90;;;;;;5072322;28;20033;-79
2022/01/22 03:43:52;;;;;;;20.13;7.27;;;6.10;99.90;;;;;;5074145;28;20027;-78
2022/01/22 03:46:19;;;;;;;15.13;7.37;;;6.10;99.90;;;;;;5072623;28;20469;-79
2022/01/22 03:48:45;;;;;;;22.17;7.77;;;6.20;99.90;;;;;;5056563;28;20390;-79
2022/01/22 03:51:11;;;;;;;26.03;7.70;;;6.20;99.90;;;;;;5072921;28;20028;-78
2022/01/22 03:53:37;;;;;;;16.80;7.60;;;6.20;99.90;;;;;;5072151;28;20537;-78
2022/01/22 03:56:04;;;;;;;15.40;6.33;;;6.20;99.90;;;;;;5090877;28;20029;-78
2022/01/22 03:58:35;;;;;;;24.70;8.00;;;6.20;99.90;;;;;;5055922;28;20185;-78
2022/01/22 04:03:56;;;;;;;;;;;6.30;99.90;;;;;;5056390;28;20035;-78
2022/01/22 04:09:06;;;;;;;14.93;6.53;;;6.20;99.90;;;;;;5057468;28;20037;-79
2022/01/22 04:11:36;;;;;;;12.33;5.67;;;6.30;99.90;;;;;;5055624;28;20068;-79
2022/01/22 04:14:04;;;;;;;15.43;6.70;;;6.20;99.90;;;;;;5069672;28;20017;-78
2022/01/22 04:16:31;;;;;;;14.20;6.40;;;6.30;99.90;;;;;;5060222;28;20469;-79
2022/01/22 04:24:54;;;;;;;13.15;5.80;;;6.30;99.90;;;;;;5071571;28;20054;-78
2022/01/22 04:27:24;;;;;;;20.77;6.13;;;6.30;99.90;;;;;;5072168;28;20025;-79
2022/01/22 04:29:51;;;;;;;15.40;6.30;;;6.30;99.90;;;;;;5070844;28;20035;-79
2022/01/22 04:32:17;;;;;;;11.77;5.60;;;6.30;99.90;;;;;;5073569;28;20036;-80
2022/01/22 04:34:43;;;;;;;20.13;5.53;;;6.30;99.90;;;;;;5071956;28;20056;-80
2022/01/22 04:37:09;;;;;;;13.80;6.33;;;6.40;99.90;;;;;;5055544;28;20460;-79
2022/01/22 04:39:36;;;;;;;13.87;6.53;;;6.30;99.90;;;;;;5071874;28;20036;-77
2022/01/22 04:42:03;;;;;;;18.30;5.77;;;6.40;99.90;;;;;;5069180;28;20048;-78
2022/01/22 04:44:34;;;;;;;14.80;5.03;;;6.40;99.90;;;;;;5072003;28;20089;-79
2022/01/22 04:47:18;;;;;;;10.20;5.13;;;6.50;99.90;;;;;;5055563;28;20385;-79
2022/01/22 04:55:00;;;;;;;15.97;5.00;;;6.40;99.90;;;;;;5073419;28;20044;-80
2022/01/22 04:57:28;;;;;;;13.03;4.80;;;6.40;99.90;;;;;;5055960;28;20077;-80
2022/01/22 04:59:53;;;;;;;19.80;5.07;;;6.40;99.90;;;;;;5072084;28;20017;-79
2022/01/22 05:02:19;;;;;;;16.93;6.03;;;6.40;99.90;;;;;;5071708;28;20093;-79
2022/01/22 05:04:45;;;;;;;14.10;4.57;;;6.50;99.90;;;;;;5067187;28;20025;-79
2022/01/22 05:07:10;;;;;;;12.73;3.63;;;6.40;99.90;;;;;;5050447;28;20052;-80
2022/01/22 05:09:36;;;;;;;11.03;4.10;;;6.50;99.90;;;;;;5072260;28;20036;-79
2022/01/22 05:12:04;;;;;;;9.93;3.23;;;6.50;99.90;;;;;;5053382;28;20044;-80
2022/01/22 05:14:29;;;;;;;14.43;3.27;;;6.50;99.90;;;;;;5039216;28;20024;-80
2022/01/22 05:16:56;;;;;;;12.10;3.23;;;6.50;99.90;;;;;;5071559;28;20039;-80
2022/01/22 05:19:30;;;;;;;16.23;3.20;;;6.40;99.90;;;;;;5071602;28;20021;-80
2022/01/22 05:22:02;;;;;;;8.37;2.40;;;6.50;99.90;;;;;;5056764;28;20027;-81
2022/01/22 05:24:31;;;;;;;12.23;2.13;;;6.50;99.90;;;;;;5055882;28;20040;-80
2022/01/22 05:37:38;;;;;;;;;;;6.60;99.90;;;;;;5068579;28;20040;-80
2022/01/22 05:40:04;;;;;;;9.90;2.70;;;6.60;99.90;;;;;;5072459;28;19909;-81
2022/01/22 05:42:30;;;;;;;11.30;2.97;;;6.60;99.90;;;;;;5053453;28;20260;-79
2022/01/22 05:44:56;;;;;;;7.07;2.23;;;6.60;99.90;;;;;;5069642;28;20135;-78
2022/01/22 05:47:25;;;;;;;20.17;3.40;;;6.50;99.90;;;;;;5053039;28;20040;-79
2022/01/22 05:49:51;;;;;;;15.13;3.70;;;6.60;99.90;;;;;;5070406;28;20392;-79
2022/01/22 05:52:25;;;;;;;8.87;2.60;;;6.60;99.90;;;;;;5071109;28;20477;-79
2022/01/22 05:55:12;;;;;;;8.60;3.35;;;6.50;99.90;;;;;;5069701;28;20047;-79
2022/01/22 06:00:22;;;;;;;11.45;4.68;;;6.50;99.90;;;;;;5066684;28;20428;-79
2022/01/22 06:02:48;;;;;;;11.50;3.80;;;6.60;99.90;;;;;;5072608;28;20028;-80
2022/01/22 06:05:13;;;;;;;14.30;3.90;;;6.50;99.90;;;;;;5075034;28;20035;-80
2022/01/22 06:07:39;;;;;;;16.63;5.10;;;6.60;99.90;;;;;;5088576;28;20119;-79
2022/01/22 06:10:16;;;;;;;17.00;6.13;;;6.50;99.90;;;;;;5058254;28;20071;-80
2022/01/22 06:15:28;;;;;;;13.20;5.90;;;6.60;99.90;;;;;;5053148;28;20103;-79
2022/01/22 06:17:54;;;;;;;15.70;5.93;;;6.60;99.90;;;;;;5039103;28;20473;-79
2022/01/22 06:20:19;;;;;;;17.90;6.43;;;6.50;99.90;;;;;;5069012;28;20462;-79
2022/01/22 06:22:45;;;;;;;20.63;6.67;;;6.60;99.90;;;;;;5053302;28;20025;-79
2022/01/22 06:25:11;;;;;;;19.37;7.20;;;6.60;99.90;;;;;;5054297;28;20477;-79
2022/01/22 06:27:36;;;;;;;13.80;7.00;;;6.60;99.90;;;;;;5054401;28;20103;-79
2022/01/22 06:30:03;;;;;;;18.77;7.23;;;6.60;99.90;;;;;;5037887;28;20087;-79
2022/01/22 06:32:28;;;;;;;28.00;8.17;;;6.60;99.90;;;;;;5059771;28;20037;-79
2022/01/22 06:34:54;;;;;;;24.77;7.47;;;6.60;99.90;;;;;;5041151;28;20465;-79
2022/01/22 06:37:20;;;;;;;18.20;7.23;;;6.50;99.90;;;;;;5052523;28;20139;-79
2022/01/22 06:42:30;;;;;;;15.05;6.95;;;6.50;99.90;;;;;;5057468;28;20499;-80
2022/01/22 06:44:57;;;;;;;21.03;7.40;;;6.50;99.90;;;;;;5069771;28;20029;-79
2022/01/22 06:47:23;;;;;;;14.57;7.40;;;6.40;99.90;;;;;;5054476;28;20029;-78
2022/01/22 06:49:48;;;;;;;12.53;6.90;;;6.50;99.90;;;;;;5046727;28;20095;-79
2022/01/22 06:52:14;;;;;;;16.00;7.20;;;6.50;99.90;;;;;;5061333;28;20383;-79
2022/01/22 06:54:41;;;;;;;16.13;6.40;;;6.60;99.90;;;;;;5037317;28;20029;-79
2022/01/22 06:57:07;;;;;;;19.17;6.57;;;6.60;99.90;;;;;;5055012;28;20052;-78
2022/01/22 06:59:32;;;;;;;17.40;7.37;;;6.60;99.90;;;;;;5054234;28;20465;-79
2022/01/22 07:01:58;;;;;;;19.60;6.97;;;6.60;99.90;;;;;;5050817;28;20033;-78
2022/01/22 07:04:24;;;;;;;24.07;7.43;;;6.50;99.90;;;;;;5037231;28;20048;-79
2022/01/22 07:06:49;;;;;;;17.10;6.60;;;6.60;99.90;;;;;;5054186;28;20119;-79
2022/01/22 07:09:15;;;;;;;20.37;6.53;;;6.60;99.90;;;;;;5053603;28;20063;-80
2022/01/22 07:11:41;;;;;;;17.07;6.23;;;6.60;99.90;;;;;;5036838;28;20037;-81
2022/01/22 07:14:06;;;;;;;14.93;5.80;;;6.60;99.90;;;;;;5069569;28;20032;-80
2022/01/22 07:16:32;;;;;;;15.80;6.40;;;6.70;99.90;;;;;;5074654;28;20032;-80
2022/01/22 07:19:01;;;;;;;13.53;5.60;;;6.60;99.90;;;;;;5054839;28;20115;-80
2022/01/22 07:21:29;;;;;;;14.70;5.80;;;6.70;99.90;;;;;;5071363;28;20488;-80
2022/01/22 07:26:26;;;;;;;12.37;5.77;;;6.80;99.90;;;;;;5079272;28;20390;-80
2022/01/22 07:28:52;;;;;;;15.30;5.37;;;6.70;99.90;;;;;;5083512;28;20025;-80
2022/01/22 07:31:20;;;;;;;16.30;5.40;;;6.70;99.90;;;;;;5081540;28;20067;-79
2022/01/22 07:33:47;;;;;;;10.80;4.77;;;6.70;99.90;;;;;;5079874;28;20031;-80
2022/01/22 07:36:12;;;;;;;14.23;5.13;;;6.70;99.90;;;;;;5066970;28;20123;-80
2022/01/22 07:38:39;;;;;;;13.73;4.33;;;6.70;99.90;;;;;;5083300;28;20458;-80
2022/01/22 07:41:07;;;;;;;16.37;4.60;;;6.90;99.90;;;;;;5081297;28;20380;-80
2022/01/22 07:43:33;;;;;;;15.30;5.10;;;6.80;99.90;;;;;;5077792;28;20055;-80
2022/01/22 07:45:59;;;;;;;13.40;5.27;;;6.80;99.90;;;;;;5081247;28;20020;-80
2022/01/22 07:48:25;;;;;;;14.90;5.17;;;6.80;99.90;;;;;;5079462;28;20035;-81
2022/01/22 07:50:51;;;;;;;16.30;4.80;;;6.90;99.90;;;;;;5083829;28;20056;-80
2022/01/22 07:53:16;;;;;;;11.03;4.40;;;6.80;99.90;;;;;;5054546;28;20101;-80
2022/01/22 07:55:42;;;;;;;19.23;5.57;;;6.80;99.90;;;;;;5083147;28;20054;-80
2022/01/22 07:58:08;;;;;;;16.60;4.47;;;6.80;99.90;;;;;;5049174;28;20115;-80
2022/01/22 08:00:34;;;;;;;12.67;4.93;;;6.80;99.90;;;;;;5063113;28;20025;-80
2022/01/22 08:02:59;;;;;;;15.43;5.10;;;6.80;99.90;;;;;;5078942;28;20040;-79
2022/01/22 08:05:25;;;;;;;10.00;3.63;;;6.90;99.90;;;;;;5056443;28;20021;-79
2022/01/22 08:07:50;;;;;;;17.83;4.73;;;6.90;99.90;;;;;;5059355;28;20024;-80
2022/01/22 08:10:17;;;;;;;16.50;4.67;;;6.90;99.90;;;;;;5082312;28;20233;-79
2022/01/22 08:12:42;;;;;;;16.13;5.03;;;6.90;99.90;;;;;;5080952;28;20067;-79
2022/01/22 08:15:10;;;;;;;12.43;4.50;;;6.90;99.90;;;;;;5078917;28;20105;-80
2022/01/22 08:17:37;;;;;;;10.57;4.57;;;6.90;99.90;;;;;;5081097;28;20460;-80
2022/01/22 08:20:04;;;;;;;13.57;4.00;;;7.00;99.90;;;;;;5083262;28;20032;-81
2022/01/22 08:22:29;;;;;;;12.90;4.10;;;7.00;99.90;;;;;;5095494;28;20043;-80
2022/01/22 08:24:58;;;;;;;14.57;4.47;;;7.00;99.90;;;;;;5057967;28;20461;-80
2022/01/22 08:29:56;;;;;;;15.23;3.77;;;7.00;99.90;;;;;;5071449;28;20404;-81
2022/01/22 08:36:02;;;;;;;12.50;3.72;;;7.00;99.90;;;;;;5020464;28;20037;-81
2022/01/22 08:38:19;;;;;;;10.80;3.77;;;7.00;99.90;;;;;;5029095;28;20116;-81
2022/01/22 08:40:45;;;;;;;8.23;3.30;;;7.10;99.90;;;;;;5058301;28;20036;-82
2022/01/22 08:43:11;;;;;;;14.73;3.27;;;7.10;99.90;;;;;;5055102;28;20051;-81
2022/01/22 08:45:36;;;;;;;9.80;3.60;;;7.10;99.90;;;;;;5054967;28;20033;-81
2022/01/22 08:48:03;;;;;;;9.97;3.57;;;7.10;99.90;;;;;;5055056;28;20032;-82
2022/01/22 08:50:29;;;;;;;9.23;3.97;;;7.10;99.90;;;;;;5072128;28;20440;-81
2022/01/22 08:52:55;;;;;;;11.47;4.00;;;7.10;99.90;;;;;;5073471;28;20032;-82
2022/01/22 08:55:21;;;;;;;13.37;3.47;;;7.20;99.90;;;;;;5069756;28;20071;-81
2022/01/22 08:57:49;;;;;;;9.87;3.03;;;7.20;99.90;;;;;;5066501;28;20510;-81
2022/01/22 09:00:18;;;;;;;8.43;2.77;;;7.20;99.90;;;;;;5070833;28;20491;-81
2022/01/22 09:02:46;;;;;;;11.03;2.90;;;7.20;99.90;;;;;;5071962;28;20032;-81
2022/01/22 09:05:15;;;;;;;12.83;3.50;;;7.20;99.90;;;;;;5055312;28;20097;-81
2022/01/22 09:07:41;;;;;;;15.50;2.93;;;7.30;99.90;;;;;;5070987;28;20473;-81
2022/01/22 09:10:07;;;;;;;7.97;2.50;;;7.30;99.90;;;;;;5055125;28;20035;-81
2022/01/22 09:12:33;;;;;;;12.37;3.20;;;7.30;99.90;;;;;;5072673;28;20047;-81
2022/01/22 09:14:58;;;;;;;14.73;3.50;;;7.30;99.90;;;;;;5068843;28;20056;-81
2022/01/22 09:17:24;;;;;;;13.00;3.40;;;7.30;99.90;;;;;;5068811;28;20473;-81
2022/01/22 09:19:57;;;;;;;6.50;2.53;;;7.40;99.90;;;;;;5034645;28;20401;-81
2022/01/22 09:22:22;;;;;;;8.53;2.67;;;7.40;99.90;;;;;;5064900;28;20029;-82
2022/01/22 09:24:49;;;;;;;9.03;2.10;;;7.30;99.90;;;;;;5070668;28;20571;-82
2022/01/22 09:27:16;;;;;;;13.27;2.80;;;7.40;99.90;;;;;;5071988;28;20099;-81
2022/01/22 09:29:42;;;;;;;14.83;3.23;;;7.50;99.90;;;;;;5052940;28;20030;-81
2022/01/22 09:32:08;;;;;;;12.10;3.03;;;7.40;99.90;;;;;;5057521;28;20115;-81
2022/01/22 09:34:34;;;;;;;9.00;2.03;;;7.40;99.90;;;;;;5052402;28;20182;-80
2022/01/22 09:36:59;;;;;;;15.80;2.93;;;7.50;99.90;;;;;;5050882;28;20078;-81
2022/01/22 09:39:25;;;;;;;8.23;2.50;;;7.50;99.90;;;;;;5089236;28;20020;-81
2022/01/22 09:41:51;;;;;;;10.60;2.43;;;7.50;99.90;;;;;;5054900;28;20040;-79
2022/01/22 09:44:17;;;;;;;13.33;2.77;;;7.50;99.90;;;;;;5038372;28;20036;-81
2022/01/22 09:46:45;;;;;;;11.13;2.50;;;7.50;99.90;;;;;;5047643;28;20040;-82
2022/01/22 09:49:12;;;;;;;8.20;2.60;;;7.50;99.90;;;;;;5055347;28;20025;-81
2022/01/22 09:51:39;;;;;;;12.50;3.10;;;7.50;99.90;;;;;;5039522;28;20069;-81
2022/01/22 09:54:06;;;;;;;12.33;3.17;;;7.60;99.90;;;;;;5073464;28;20028;-79
2022/01/22 09:56:32;;;;;;;9.00;3.33;;;7.60;99.90;;;;;;5071595;28;20029;-79
2022/01/22 09:58:59;;;;;;;9.07;2.87;;;7.60;99.90;;;;;;5070675;28;20370;-80
2022/01/22 10:01:30;;;;;;;10.33;3.07;;;7.60;99.90;;;;;;5074037;28;20021;-81
2022/01/22 10:03:58;;;;;;;11.97;2.53;;;7.60;99.90;;;;;;5076113;28;20023;-80
2022/01/22 10:06:27;;;;;;;11.60;3.00;;;7.60;99.90;;;;;;5074865;28;20023;-81
2022/01/22 10:09:11;;;;;;;10.00;2.60;;;7.70;99.90;;;;;;5066607;28;20025;-81
2022/01/22 10:11:37;;;;;;;15.15;2.88;;;7.60;99.90;;;;;;5087009;28;20055;-81
2022/01/22 10:14:03;;;;;;;13.60;3.50;;;7.70;99.90;;;;;;5074100;28;20389;-81
2022/01/22 10:16:37;;;;;;;8.87;2.93;;;7.70;99.90;;;;;;5073621;28;20025;-81
2022/01/22 10:19:19;;;;;;;9.43;2.55;;;7.70;99.90;;;;;;5075331;28;20095;-80
2022/01/22 10:21:58;;;;;;;10.17;2.70;;;7.70;99.90;;;;;;5071507;28;20111;-81
2022/01/22 10:30:03;;;;;;;7.07;2.40;;;7.80;99.90;;;;;;5074165;28;20086;-80
2022/01/22 10:32:59;;;;;;;8.00;2.73;;;7.80;99.90;;;;;;5072909;28;20040;-80
2022/01/22 10:35:18;;;;;;;12.23;3.53;;;7.80;99.90;;;;;;5066441;28;20508;-80
2022/01/22 10:37:45;;;;;;;9.20;3.17;;;7.80;99.90;;;;;;5064585;28;20056;-80
2022/01/22 10:40:19;;;;;;;7.57;2.30;;;7.80;99.90;;;;;;5072733;28;20032;-80
2022/01/22 10:42:46;;;;;;;11.07;3.00;;;7.80;99.90;;;;;;5068403;28;20472;-79
2022/01/22 10:45:19;;;;;;;12.13;2.67;;;7.70;99.90;;;;;;5073041;28;20115;-80
2022/01/22 10:47:46;;;;;;;7.97;2.87;;;7.80;99.90;;;;;;5069850;28;20035;-80
2022/01/22 10:50:19;;;;;;;9.23;3.20;;;7.80;99.90;;;;;;5070286;28;20423;-80
2022/01/22 10:52:47;;;;;;;6.03;2.55;;;7.80;99.90;;;;;;5071337;28;20032;-81
2022/01/22 10:55:13;;;;;;;13.93;2.97;;;7.80;99.90;;;;;;5072784;28;20052;-81
2022/01/22 10:57:39;;;;;;;10.80;2.93;;;7.80;99.90;;;;;;5072652;28;20055;-81
2022/01/22 11:00:18;;;;;;;11.60;3.53;;;7.80;99.90;;;;;;5073594;28;20100;-80
2022/01/22 11:02:44;;;;;;;6.77;3.00;;;7.80;99.90;;;;;;5072025;28;20027;-80
2022/01/22 11:05:30;;;;;;;10.13;3.70;;;7.90;99.90;;;;;;5055659;28;20400;-80
2022/01/22 11:08:16;;;;;;;11.10;3.83;;;7.90;99.90;;;;;;5075563;28;20021;-81
2022/01/22 11:10:44;;;;;;;8.93;4.20;;;7.90;99.90;;;;;;5074692;28;20052;-81
2022/01/22 11:13:10;;;;;;;8.53;3.20;;;7.90;99.90;;;;;;5073796;28;20489;-81
2022/01/22 11:15:36;;;;;;;11.57;3.47;;;7.90;99.90;;;;;;5073807;28;20174;-82
2022/01/22 11:18:03;;;;;;;8.60;3.40;;;7.90;99.90;;;;;;5057328;28;20036;-80
2022/01/22 11:20:32;;;;;;;10.50;3.30;;;7.90;99.90;;;;;;5047487;28;20452;-80
2022/01/22 11:22:58;;;;;;;9.03;3.23;;;7.90;99.90;;;;;;5071411;28;20477;-81
2022/01/22 11:25:26;;;;;;;12.40;3.87;;;7.90;99.90;;;;;;5052132;28;20162;-81
2022/01/22 11:27:53;;;;;;;13.23;4.50;;;7.90;99.90;;;;;;5069855;28;20033;-80
2022/01/22 11:30:25;;;;;;;13.43;4.83;;;7.90;99.90;;;;;;5067961;28;20481;-81
2022/01/22 11:32:57;;;;;;;10.97;5.40;;;7.90;99.90;;;;;;5070277;28;20029;-81
2022/01/22 11:35:31;;;;;;;15.37;5.37;;;7.90;99.90;;;;;;5063565;28;20025;-80
2022/01/22 11:38:05;;;;;;;13.30;4.10;;;7.90;99.50;;;;;;5082594;28;20485;-80
2022/01/22 11:40:33;;;;;;;10.47;3.83;;;7.90;99.60;;;;;;5072220;28;20032;-80
2022/01/22 11:43:20;;;;;;;12.83;5.03;;;7.90;99.60;;;;;;5038484;28;20381;-80
2022/01/22 11:45:53;;;;;;;11.33;3.90;;;7.90;99.60;;;;;;5071324;28;20150;-80
2022/01/22 11:48:23;;;;;;;14.03;4.63;;;7.90;99.60;;;;;;5056928;28;20048;-80
2022/01/22 11:50:52;;;;;;;10.70;4.10;;;7.90;99.50;;;;;;5073325;28;20027;-80
2022/01/22 11:53:23;;;;;;;13.80;4.23;;;7.90;99.60;;;;;;5072907;28;20036;-81
2022/01/22 11:56:11;;;;;;;11.13;4.20;;;8.00;99.50;;;;;;5071844;28;20035;-80
2022/01/22 11:59:03;;;;;;;11.17;4.10;;;7.90;99.50;;;;;;5054652;28;20033;-80
2022/01/22 12:01:40;;;;;;;10.00;4.23;;;8.00;99.60;;;;;;5052106;28;20060;-81
2022/01/22 12:04:11;;;;;;;11.40;4.47;;;8.00;99.40;;;;;;5067380;28;20070;-80
2022/01/22 12:06:37;;;;;;;12.90;4.10;;;8.00;99.20;;;;;;5075082;28;20040;-80
2022/01/22 12:09:12;;;;;;;10.80;4.03;;;8.00;99.30;;;;;;5075073;28;20031;-80
2022/01/22 12:14:49;;;;;;;9.17;3.50;;;8.00;99.00;;;;;;5054597;28;20369;-80
2022/01/22 12:17:28;;;;;;;12.67;3.67;;;8.10;99.00;;;;;;5056301;28;20035;-81
2022/01/22 12:22:39;;;;;;;6.53;3.30;;;8.10;98.90;;;;;;5055589;28;20037;-80
2022/01/22 12:25:13;;;;;;;8.63;3.20;;;8.10;98.90;;;;;;5053854;28;20021;-80
2022/01/22 12:27:43;;;;;;;8.37;3.90;;;8.10;98.80;;;;;;5052657;28;20021;-79
2022/01/22 12:30:09;;;;;;;8.77;2.87;;;8.10;98.70;;;;;;5071997;28;20036;-81
2022/01/22 12:32:45;;;;;;;7.27;3.10;;;8.10;98.60;;;;;;5072581;28;20044;-80
2022/01/22 12:35:31;;;;;;;10.10;3.07;;;8.20;98.50;;;;;;5072477;28;20024;-81
2022/01/22 12:38:18;;;;;;;10.93;2.87;;;8.20;98.50;;;;;;5071187;28;20036;-81
2022/01/22 12:40:45;;;;;;;8.73;2.80;;;8.20;98.30;;;;;;5086685;28;20016;-80
2022/01/22 12:43:14;;;;;;;5.57;2.10;;;8.20;98.20;;;;;;5070439;28;20040;-79
2022/01/22 12:45:44;;;;;;;7.53;2.27;;;8.20;98.40;;;;;;5070291;28;20225;-80
2022/01/22 12:48:13;;;;;;;7.80;2.37;;;8.20;98.30;;;;;;5071300;28;20056;-80
2022/01/22 12:50:39;;;;;;;5.83;2.40;;;8.30;98.40;;;;;;5071946;28;20430;-80
2022/01/22 12:53:11;;;;;;;10.67;3.30;;;8.30;98.30;;;;;;5071869;28;20174;-80
2022/01/22 12:58:33;;;;;;;6.87;2.40;;;8.30;98.10;;;;;;5072153;28;20037;-80
2022/01/22 13:01:17;;;;;;;11.73;3.80;;;8.30;98.10;;;;;;5072129;28;20025;-80
2022/01/22 13:03:45;;;;;;;11.52;4.00;;;8.40;98.00;;;;;;5071943;28;20438;-80
2022/01/22 13:06:11;;;;;;;11.13;3.90;;;8.30;97.80;;;;;;5073438;28;20047;-80
2022/01/22 13:08:37;;;;;;;11.33;4.33;;;8.30;97.80;;;;;;5071885;28;20469;-79
2022/01/22 13:11:07;;;;;;;11.63;5.60;;;8.30;97.80;;;;;;5073192;28;20024;-80
2022/01/22 13:13:33;;;;;;;16.10;5.97;;;8.30;97.80;;;;;;5071023;28;20036;-79
2022/01/22 13:16:10;;;;;;;14.87;6.70;;;8.30;97.90;;;;;;5072974;28;20025;-79
2022/01/22 13:18:50;;;;;;;15.73;7.17;;;8.30;98.10;;;;;;5073110;28;20032;-79
2022/01/22 13:21:18;;;;;;;16.60;7.53;;;8.30;97.70;;;;;;5088601;28;20024;-80
2022/01/22 13:23:56;;;;;;;13.43;7.73;;;8.30;97.80;;;;;;5072860;28;20065;-80
2022/01/22 13:26:54;;;;;;;14.53;7.20;;;8.20;97.90;;;;;;5073009;28;20503;-79
2022/01/22 13:29:32;;;;;;;18.83;8.30;;;8.20;97.90;;;;;;5065552;28;20025;-81
2022/01/22 13:32:01;;;;;;;15.43;9.23;;;8.20;97.90;;;;;;5070138;28;20468;-81
2022/01/22 13:34:43;;;;;;;17.70;8.53;;;8.20;98.00;;;;;;5069824;28;20031;-80
2022/01/22 13:48:31;;;;;;;13.80;7.10;;;8.10;98.20;;;;;;5052941;28;20063;-81
2022/01/22 13:50:58;;;;;;;13.97;7.80;;;8.10;98.30;;;;;;5034954;28;20025;-81
2022/01/22 13:53:24;;;;;;;13.07;7.17;;;8.10;98.30;;;;;;5070752;28;20040;-79
2022/01/22 13:56:09;;;;;;;14.67;7.33;;;8.10;98.40;;;;;;5065791;28;20037;-80
2022/01/22 13:58:35;;;;;;;14.77;7.07;;;8.10;98.50;;;;;;5072195;28;20037;-79
2022/01/22 14:01:16;;;;;;;10.07;5.53;;;8.10;98.60;;;;;;5071113;28;20373;-80
2022/01/22 14:03:44;;;;;;;12.13;6.27;;;8.00;98.60;;;;;;5072782;28;20107;-81
2022/01/22 14:06:11;;;;;;;15.80;6.97;;;8.00;98.60;;;;;;5072762;28;20046;-79
2022/01/22 14:08:37;;;;;;;11.87;6.07;;;8.00;98.70;;;;;;5069038;28;20036;-79
2022/01/22 14:11:13;;;;;;;17.10;6.80;;;8.10;98.70;;;;;;5069308;28;20178;-79
2022/01/22 14:13:40;;;;;;;11.83;6.50;;;8.00;98.70;;;;;;5070028;28;20044;-81
2022/01/22 14:16:24;;;;;;;12.53;6.00;;;8.10;98.80;;;;;;5071349;28;20053;-80
2022/01/22 14:18:51;;;;;;;18.95;7.07;;;8.10;98.80;;;;;;5054595;28;20039;-80
2022/01/22 14:21:20;;;;;;;10.50;5.53;;;8.10;98.80;;;;;;5072554;28;20029;-80
2022/01/22 14:23:49;;;;;;;14.63;5.30;;;8.00;98.80;;;;;;5056482;28;20115;-80
2022/01/22 14:26:32;;;;;;;13.07;6.00;;;8.10;98.80;;;;;;5074981;28;20029;-80
2022/01/22 14:29:08;;;;;;;13.17;5.50;;;8.10;98.90;;;;;;5075964;28;20028;-80
2022/01/22 14:31:41;;;;;;;12.50;4.77;;;8.10;98.90;;;;;;5074277;28;20476;-79
2022/01/22 14:34:28;;;;;;;10.03;5.20;;;8.10;98.90;;;;;;5074899;28;20039;-80
2022/01/22 14:36:54;;;;;;;11.13;5.43;;;8.10;98.80;;;;;;5076023;28;20027;-80
2022/01/22 14:44:41;;;;;;;13.47;5.93;;;8.00;98.80;;;;;;5073331;28;20044;-81
2022/01/22 14:47:17;;;;;;;8.77;5.20;;;8.00;98.90;;;;;;5074088;28;20090;-80
2022/01/22 14:49:47;;;;;;;11.10;5.47;;;8.00;98.90;;;;;;5075195;28;20029;-81
2022/01/22 14:52:15;;;;;;;10.80;5.30;;;8.00;98.90;;;;;;5075553;28;20029;-80
2022/01/22 14:54:46;;;;;;;17.50;6.47;;;8.00;98.80;;;;;;5075402;28;20043;-80
2022/01/22 14:57:13;;;;;;;11.63;6.03;;;8.00;98.80;;;;;;5058054;28;20392;-79
2022/01/22 14:59:42;;;;;;;11.10;5.73;;;8.10;98.90;;;;;;5074131;28;20043;-80